createdAt,value
2018-07-26T00:00:31.966Z,0.00
2018-07-26T00:01:31.956Z,0.00
2018-07-26T00:02:32.025Z,0.00
2018-07-26T00:03:31.943Z,0.00
2018-07-26T00:04:31.923Z,0.00
2018-07-26T00:05:31.938Z,0.00
2018-07-26T00:06:31.918Z,0.00
2018-07-26T00:07:31.971Z,0.00
2018-07-26T00:08:31.879Z,0.00
2018-07-26T00:09:31.869Z,0.00
2018-07-26T00:10:31.858Z,0.00
2018-07-26T00:11:31.848Z,0.00
2018-07-26T00:12:31.921Z,0.00
2018-07-26T00:13:31.834Z,0.00
2018-07-26T00:14:31.822Z,0.00
2018-07-26T00:15:31.805Z,0.00
2018-07-26T00:16:31.793Z,0.00
2018-07-26T00:17:31.870Z,0.00
2018-07-26T00:18:31.777Z,0.00
2018-07-26T00:19:31.775Z,0.00
2018-07-26T00:20:31.752Z,0.00
2018-07-26T00:21:31.749Z,0.00
2018-07-26T00:22:31.806Z,0.00
2018-07-26T00:23:31.722Z,0.00
2018-07-26T00:24:31.716Z,0.00
2018-07-26T00:25:31.697Z,0.00
2018-07-26T00:26:31.685Z,0.00
2018-07-26T00:27:31.743Z,0.00
2018-07-26T00:28:31.670Z,0.00
2018-07-26T00:29:31.664Z,0.00
2018-07-26T00:30:31.642Z,0.00
2018-07-26T00:31:31.632Z,0.00
2018-07-26T00:32:31.713Z,0.00
2018-07-26T00:33:31.606Z,0.00
2018-07-26T00:34:31.593Z,0.00
2018-07-26T00:35:31.590Z,0.00
2018-07-26T00:36:31.573Z,0.00
2018-07-26T00:37:31.635Z,0.00
2018-07-26T00:38:31.555Z,0.00
2018-07-26T00:39:31.548Z,0.00
2018-07-26T00:40:31.531Z,0.00
2018-07-26T00:41:31.543Z,0.00
2018-07-26T00:42:31.601Z,0.00
2018-07-26T00:43:31.493Z,0.00
2018-07-26T00:44:31.490Z,0.00
2018-07-26T00:45:31.491Z,0.00
2018-07-26T00:46:31.467Z,0.00
2018-07-26T00:47:31.458Z,0.00
2018-07-26T00:48:31.525Z,0.00
2018-07-26T00:49:33.153Z,0.00
2018-07-26T00:50:31.405Z,0.00
2018-07-26T00:51:31.397Z,0.00
2018-07-26T00:52:31.402Z,0.00
2018-07-26T00:53:31.463Z,0.00
2018-07-26T00:54:31.374Z,0.00
2018-07-26T00:55:31.364Z,0.00
2018-07-26T00:56:31.357Z,0.00
2018-07-26T00:57:31.353Z,0.00
2018-07-26T00:58:31.413Z,0.00
2018-07-26T00:59:31.322Z,0.00
2018-07-26T01:00:31.328Z,0.00
2018-07-26T01:01:31.314Z,0.00
2018-07-26T01:02:31.294Z,0.00
2018-07-26T01:03:31.355Z,0.00
2018-07-26T01:04:31.275Z,0.00
2018-07-26T01:05:31.261Z,0.00
2018-07-26T01:06:31.257Z,0.00
2018-07-26T01:07:31.257Z,0.00
2018-07-26T01:08:31.339Z,0.00
2018-07-26T01:09:31.267Z,0.00
2018-07-26T01:10:31.212Z,0.00
2018-07-26T01:11:31.193Z,0.00
2018-07-26T01:12:31.176Z,0.00
2018-07-26T01:13:31.245Z,0.00
2018-07-26T01:14:31.140Z,0.00
2018-07-26T01:15:31.149Z,0.00
2018-07-26T01:16:31.132Z,0.00
2018-07-26T01:17:31.148Z,0.00
2018-07-26T01:18:31.178Z,0.00
2018-07-26T01:19:31.102Z,0.00
2018-07-26T01:20:31.089Z,0.00
2018-07-26T01:21:31.097Z,0.00
2018-07-26T01:22:31.096Z,0.00
2018-07-26T01:23:31.145Z,0.00
2018-07-26T01:24:31.049Z,0.00
2018-07-26T01:25:31.034Z,0.00
2018-07-26T01:26:31.023Z,0.00
2018-07-26T01:27:31.012Z,0.00
2018-07-26T01:28:31.074Z,0.00
2018-07-26T01:29:30.995Z,0.00
2018-07-26T01:30:31.001Z,0.00
2018-07-26T01:31:30.968Z,0.00
2018-07-26T01:32:30.965Z,0.00
2018-07-26T01:33:31.020Z,0.00
2018-07-26T01:34:30.942Z,0.00
2018-07-26T01:35:30.919Z,0.00
2018-07-26T01:36:30.925Z,0.00
2018-07-26T01:37:30.901Z,0.00
2018-07-26T01:38:30.992Z,0.00
2018-07-26T01:39:30.887Z,0.00
2018-07-26T01:40:30.867Z,0.00
2018-07-26T01:41:30.860Z,0.00
2018-07-26T01:42:30.850Z,0.00
2018-07-26T01:43:30.918Z,0.00
2018-07-26T01:44:30.832Z,0.00
2018-07-26T01:45:30.822Z,0.00
2018-07-26T01:46:30.805Z,0.00
2018-07-26T01:47:30.793Z,0.00
2018-07-26T01:48:30.858Z,0.00
2018-07-26T01:49:30.777Z,0.00
2018-07-26T01:50:30.758Z,0.00
2018-07-26T01:51:30.750Z,0.00
2018-07-26T01:52:30.732Z,0.00
2018-07-26T01:53:30.800Z,0.00
2018-07-26T01:54:30.713Z,0.00
2018-07-26T01:55:30.710Z,0.00
2018-07-26T01:56:30.692Z,0.00
2018-07-26T01:57:30.697Z,0.00
2018-07-26T01:58:30.736Z,0.00
2018-07-26T01:59:30.677Z,0.00
2018-07-26T02:00:30.646Z,0.00
2018-07-26T02:01:30.640Z,0.00
2018-07-26T02:02:30.624Z,0.00
2018-07-26T02:03:30.698Z,0.00
2018-07-26T02:04:30.612Z,0.00
2018-07-26T02:05:30.599Z,0.00
2018-07-26T02:06:30.582Z,0.00
2018-07-26T02:07:30.571Z,0.00
2018-07-26T02:08:30.626Z,0.00
2018-07-26T02:09:30.554Z,0.00
2018-07-26T02:10:30.548Z,0.00
2018-07-26T02:11:30.523Z,0.00
2018-07-26T02:12:30.516Z,0.00
2018-07-26T02:13:30.656Z,0.00
2018-07-26T02:14:30.497Z,0.00
2018-07-26T02:15:30.480Z,0.00
2018-07-26T02:16:30.496Z,0.00
2018-07-26T02:17:30.476Z,0.00
2018-07-26T02:18:30.515Z,0.00
2018-07-26T02:19:30.419Z,0.00
2018-07-26T02:20:30.423Z,0.00
2018-07-26T02:21:30.429Z,0.00
2018-07-26T02:22:30.412Z,0.00
2018-07-26T02:23:30.477Z,0.00
2018-07-26T02:24:30.381Z,0.00
2018-07-26T02:25:30.369Z,0.00
2018-07-26T02:26:30.354Z,0.00
2018-07-26T02:27:30.341Z,0.00
2018-07-26T02:28:30.330Z,0.00
2018-07-26T02:29:30.394Z,0.00
2018-07-26T02:30:30.311Z,0.00
2018-07-26T02:31:30.338Z,0.00
2018-07-26T02:32:30.300Z,0.00
2018-07-26T02:33:30.283Z,0.00
2018-07-26T02:39:50.650Z,0.00
2018-07-26T02:40:50.651Z,0.00
2018-07-26T02:41:50.510Z,0.00
2018-07-26T02:42:50.506Z,0.00
2018-07-26T02:43:50.706Z,0.00
2018-07-26T02:44:50.440Z,0.00
2018-07-26T02:45:50.439Z,0.00
2018-07-26T02:46:50.396Z,0.00
2018-07-26T02:47:50.406Z,0.00
2018-07-26T02:53:46.861Z,0.00
2018-07-26T02:54:46.884Z,0.00
2018-07-26T02:55:46.716Z,0.00
2018-07-26T02:56:46.678Z,0.00
2018-07-26T02:57:46.668Z,0.00
2018-07-26T02:58:46.744Z,0.00
2018-07-26T02:59:46.647Z,0.00
2018-07-26T03:00:46.633Z,0.00
2018-07-26T03:01:46.657Z,0.00
2018-07-26T03:02:46.612Z,0.00
2018-07-26T03:03:46.600Z,0.00
2018-07-26T03:04:46.660Z,0.00
2018-07-26T03:05:46.578Z,0.00
2018-07-26T03:06:46.572Z,0.00
2018-07-26T03:07:46.561Z,0.00
2018-07-26T03:08:46.545Z,0.00
2018-07-26T03:09:46.622Z,0.00
2018-07-26T03:10:46.525Z,0.00
2018-07-26T03:11:46.509Z,0.00
2018-07-26T03:12:46.507Z,0.00
2018-07-26T03:13:46.491Z,0.00
2018-07-26T03:14:46.559Z,0.00
2018-07-26T03:15:46.470Z,0.00
2018-07-26T03:16:46.460Z,0.00
2018-07-26T03:17:46.447Z,0.00
2018-07-26T03:18:46.463Z,0.00
2018-07-26T03:19:46.504Z,0.00
2018-07-26T03:20:46.444Z,0.00
2018-07-26T03:21:46.403Z,0.00
2018-07-26T03:22:46.387Z,0.00
2018-07-26T03:23:46.378Z,0.00
2018-07-26T03:24:46.470Z,0.00
2018-07-26T03:25:46.355Z,0.00
2018-07-26T03:26:46.346Z,0.00
2018-07-26T03:27:46.352Z,0.00
2018-07-26T03:28:46.320Z,0.00
2018-07-26T03:29:46.394Z,0.00
2018-07-26T03:30:46.303Z,0.00
2018-07-26T03:31:46.289Z,0.00
2018-07-26T03:32:46.278Z,0.00
2018-07-26T03:33:46.270Z,0.00
2018-07-26T03:34:46.333Z,0.00
2018-07-26T03:35:46.271Z,0.00
2018-07-26T03:36:46.240Z,0.00
2018-07-26T03:37:46.224Z,0.00
2018-07-26T03:38:46.246Z,0.00
2018-07-26T03:39:46.282Z,0.00
2018-07-26T03:40:46.202Z,0.00
2018-07-26T03:41:46.184Z,0.00
2018-07-26T03:42:46.167Z,0.00
2018-07-26T03:43:46.158Z,0.00
2018-07-26T03:44:46.249Z,0.00
2018-07-26T03:45:46.134Z,0.00
2018-07-26T03:46:46.122Z,0.00
2018-07-26T03:47:46.112Z,0.00
2018-07-26T03:48:46.100Z,0.00
2018-07-26T03:49:46.181Z,0.00
2018-07-26T03:50:46.080Z,0.00
2018-07-26T03:51:46.065Z,0.00
2018-07-26T03:52:46.073Z,0.00
2018-07-26T03:53:46.044Z,0.00
2018-07-26T03:54:46.121Z,0.00
2018-07-26T03:55:46.028Z,0.00
2018-07-26T03:56:46.012Z,0.00
2018-07-26T03:57:46.044Z,0.00
2018-07-26T03:58:46.013Z,5.62
2018-07-26T03:59:46.054Z,5.62
2018-07-26T04:00:45.972Z,5.62
2018-07-26T04:01:45.955Z,5.62
2018-07-26T04:02:45.943Z,5.62
2018-07-26T04:03:45.935Z,5.62
2018-07-26T04:04:45.995Z,5.62
2018-07-26T04:05:45.912Z,5.62
2018-07-26T04:06:45.907Z,5.62
2018-07-26T04:07:45.901Z,5.62
2018-07-26T04:08:45.875Z,5.62
2018-07-26T04:09:45.945Z,5.62
2018-07-26T04:10:45.866Z,5.62
2018-07-26T04:11:45.847Z,5.62
2018-07-26T04:12:45.835Z,11.25
2018-07-26T04:13:45.818Z,11.25
2018-07-26T04:14:45.886Z,11.25
2018-07-26T04:15:45.802Z,11.25
2018-07-26T04:16:45.775Z,11.25
2018-07-26T04:17:45.775Z,11.25
2018-07-26T04:18:45.778Z,11.25
2018-07-26T04:19:45.835Z,11.25
2018-07-26T04:20:45.745Z,11.25
2018-07-26T04:21:45.734Z,11.25
2018-07-26T04:22:45.722Z,16.88
2018-07-26T04:23:45.719Z,16.88
2018-07-26T04:24:45.772Z,16.88
2018-07-26T04:25:45.694Z,16.88
2018-07-26T04:26:45.699Z,16.88
2018-07-26T04:27:45.671Z,16.88
2018-07-26T04:28:45.670Z,16.88
2018-07-26T04:29:45.727Z,16.88
2018-07-26T04:30:45.653Z,22.50
2018-07-26T04:31:45.685Z,22.50
2018-07-26T04:32:45.629Z,22.50
2018-07-26T04:33:45.603Z,22.50
2018-07-26T04:34:45.690Z,22.50
2018-07-26T04:35:45.581Z,22.50
2018-07-26T04:36:45.569Z,22.50
2018-07-26T04:37:45.557Z,22.50
2018-07-26T04:38:45.555Z,22.50
2018-07-26T04:39:45.533Z,22.50
2018-07-26T04:40:45.594Z,28.12
2018-07-26T04:41:45.512Z,28.12
2018-07-26T04:42:45.512Z,28.12
2018-07-26T04:43:45.498Z,28.12
2018-07-26T04:44:45.477Z,28.12
2018-07-26T04:45:45.551Z,28.12
2018-07-26T04:46:45.468Z,28.12
2018-07-26T04:47:45.451Z,28.12
2018-07-26T04:48:45.423Z,28.12
2018-07-26T04:49:45.441Z,28.12
2018-07-26T04:50:45.493Z,33.75
2018-07-26T04:51:45.403Z,33.75
2018-07-26T04:52:45.404Z,33.75
2018-07-26T04:53:45.373Z,33.75
2018-07-26T04:54:45.367Z,33.75
2018-07-26T04:55:45.427Z,33.75
2018-07-26T04:56:45.352Z,33.75
2018-07-26T04:57:45.335Z,33.75
2018-07-26T04:58:45.323Z,33.75
2018-07-26T04:59:45.316Z,39.38
2018-07-26T05:00:45.398Z,39.38
2018-07-26T05:01:45.315Z,39.38
2018-07-26T05:02:45.284Z,39.38
2018-07-26T05:03:45.267Z,39.38
2018-07-26T05:04:45.240Z,39.38
2018-07-26T05:05:45.321Z,39.38
2018-07-26T05:06:45.240Z,39.38
2018-07-26T05:07:45.231Z,39.38
2018-07-26T05:08:45.220Z,39.38
2018-07-26T05:09:45.204Z,39.38
2018-07-26T05:10:45.261Z,39.38
2018-07-26T05:11:45.178Z,39.38
2018-07-26T05:12:45.172Z,45.00
2018-07-26T05:13:45.163Z,45.00
2018-07-26T05:14:45.151Z,45.00
2018-07-26T05:15:45.207Z,45.00
2018-07-26T05:16:45.125Z,45.00
2018-07-26T05:17:45.118Z,45.00
2018-07-26T05:18:45.104Z,45.00
2018-07-26T05:19:45.100Z,45.00
2018-07-26T05:20:45.150Z,45.00
2018-07-26T05:21:45.069Z,45.00
2018-07-26T05:22:45.063Z,45.00
2018-07-26T05:23:45.057Z,50.62
2018-07-26T05:24:45.038Z,50.62
2018-07-26T05:25:45.105Z,50.62
2018-07-26T05:26:45.002Z,45.00
2018-07-26T05:27:45.080Z,45.00
2018-07-26T05:28:45.000Z,50.62
2018-07-26T05:29:45.003Z,45.00
2018-07-26T05:30:45.048Z,50.62
2018-07-26T05:31:44.964Z,50.62
2018-07-26T05:32:44.952Z,50.62
2018-07-26T05:33:44.939Z,50.62
2018-07-26T05:34:44.927Z,50.62
2018-07-26T05:35:44.990Z,50.62
2018-07-26T05:36:44.906Z,50.62
2018-07-26T05:37:44.922Z,50.62
2018-07-26T05:38:44.884Z,50.62
2018-07-26T05:39:44.872Z,50.62
2018-07-26T05:40:44.936Z,50.62
2018-07-26T05:41:44.955Z,50.62
2018-07-26T05:42:44.843Z,45.00
2018-07-26T05:43:44.833Z,50.62
2018-07-26T05:44:44.819Z,45.00
2018-07-26T05:45:44.879Z,45.00
2018-07-26T05:46:44.797Z,45.00
2018-07-26T05:47:44.783Z,50.62
2018-07-26T05:48:44.790Z,45.00
2018-07-26T05:49:44.762Z,45.00
2018-07-26T05:50:44.880Z,50.62
2018-07-26T05:51:44.738Z,45.00
2018-07-26T05:52:44.725Z,45.00
2018-07-26T05:53:44.718Z,50.62
2018-07-26T05:54:44.707Z,50.62
2018-07-26T05:55:44.771Z,50.62
2018-07-26T05:56:44.687Z,50.62
2018-07-26T05:57:44.681Z,56.25
2018-07-26T05:58:44.667Z,56.25
2018-07-26T05:59:44.652Z,56.25
2018-07-26T06:00:44.716Z,56.25
2018-07-26T06:01:44.630Z,56.25
2018-07-26T06:02:44.617Z,56.25
2018-07-26T06:03:44.617Z,61.88
2018-07-26T06:04:44.606Z,61.88
2018-07-26T06:05:44.660Z,56.25
2018-07-26T06:06:44.572Z,56.25
2018-07-26T06:07:44.556Z,45.00
2018-07-26T06:08:44.563Z,56.25
2018-07-26T06:09:44.619Z,56.25
2018-07-26T06:10:44.609Z,56.25
2018-07-26T06:11:44.518Z,56.25
2018-07-26T06:12:44.507Z,56.25
2018-07-26T06:13:44.494Z,56.25
2018-07-26T06:14:44.489Z,56.25
2018-07-26T06:15:44.590Z,61.88
2018-07-26T06:16:44.485Z,61.88
2018-07-26T06:17:44.453Z,61.88
2018-07-26T06:18:44.439Z,61.88
2018-07-26T06:19:44.434Z,61.88
2018-07-26T06:20:44.581Z,61.88
2018-07-26T06:21:44.491Z,56.25
2018-07-26T06:22:44.398Z,56.25
2018-07-26T06:23:44.384Z,56.25
2018-07-26T06:24:44.374Z,56.25
2018-07-26T06:25:44.366Z,56.25
2018-07-26T06:26:44.428Z,56.25
2018-07-26T06:27:44.343Z,56.25
2018-07-26T06:28:44.326Z,61.88
2018-07-26T06:29:44.318Z,61.88
2018-07-26T06:30:44.304Z,61.88
2018-07-26T06:31:44.370Z,61.88
2018-07-26T06:32:44.288Z,61.88
2018-07-26T06:33:44.313Z,61.88
2018-07-26T06:34:44.261Z,61.88
2018-07-26T06:35:44.247Z,61.88
2018-07-26T06:36:44.311Z,61.88
2018-07-26T06:37:44.235Z,61.88
2018-07-26T06:38:44.219Z,61.88
2018-07-26T06:39:44.211Z,61.88
2018-07-26T06:40:44.192Z,67.50
2018-07-26T06:41:44.255Z,67.50
2018-07-26T06:42:44.174Z,67.50
2018-07-26T06:43:44.170Z,73.12
2018-07-26T06:44:44.154Z,61.88
2018-07-26T06:45:44.149Z,61.88
2018-07-26T06:46:44.195Z,61.88
2018-07-26T06:47:44.122Z,61.88
2018-07-26T06:48:44.105Z,67.50
2018-07-26T06:49:44.109Z,67.50
2018-07-26T06:50:44.093Z,67.50
2018-07-26T06:51:44.176Z,67.50
2018-07-26T06:52:44.066Z,67.50
2018-07-26T06:53:44.054Z,67.50
2018-07-26T06:54:44.046Z,67.50
2018-07-26T06:55:44.033Z,67.50
2018-07-26T06:56:44.089Z,67.50
2018-07-26T06:57:44.020Z,67.50
2018-07-26T06:58:44.001Z,67.50
2018-07-26T06:59:43.989Z,67.50
2018-07-26T07:00:44.010Z,67.50
2018-07-26T07:01:44.041Z,67.50
2018-07-26T07:02:43.960Z,67.50
2018-07-26T07:03:43.944Z,67.50
2018-07-26T07:04:43.936Z,67.50
2018-07-26T07:05:43.923Z,67.50
2018-07-26T07:06:43.980Z,67.50
2018-07-26T07:07:43.905Z,67.50
2018-07-26T07:08:43.889Z,67.50
2018-07-26T07:09:43.874Z,67.50
2018-07-26T07:10:43.874Z,67.50
2018-07-26T07:11:43.935Z,67.50
2018-07-26T07:12:43.848Z,67.50
2018-07-26T07:13:43.842Z,61.88
2018-07-26T07:14:43.827Z,61.88
2018-07-26T07:15:43.814Z,67.50
2018-07-26T07:16:43.883Z,61.88
2018-07-26T07:17:43.793Z,61.88
2018-07-26T07:18:43.788Z,67.50
2018-07-26T07:19:43.783Z,67.50
2018-07-26T07:20:43.762Z,67.50
2018-07-26T07:21:43.822Z,67.50
2018-07-26T07:22:43.740Z,61.88
2018-07-26T07:23:43.732Z,61.88
2018-07-26T07:24:43.740Z,67.50
2018-07-26T07:25:43.710Z,61.88
2018-07-26T07:26:43.757Z,67.50
2018-07-26T07:27:43.718Z,67.50
2018-07-26T07:28:43.943Z,67.50
2018-07-26T07:29:43.921Z,67.50
2018-07-26T07:30:43.882Z,67.50
2018-07-26T07:31:44.203Z,67.50
2018-07-26T07:32:43.823Z,67.50
2018-07-26T07:33:43.621Z,67.50
2018-07-26T07:34:43.633Z,67.50
2018-07-26T07:35:43.606Z,67.50
2018-07-26T07:36:43.849Z,67.50
2018-07-26T07:37:43.584Z,67.50
2018-07-26T07:38:43.721Z,67.50
2018-07-26T07:39:43.564Z,67.50
2018-07-26T07:40:43.555Z,67.50
2018-07-26T07:41:43.644Z,67.50
2018-07-26T07:42:43.533Z,67.50
2018-07-26T07:43:43.756Z,67.50
2018-07-26T07:44:43.580Z,67.50
2018-07-26T07:45:43.496Z,67.50
2018-07-26T07:46:43.561Z,67.50
2018-07-26T07:47:43.520Z,67.50
2018-07-26T07:48:43.470Z,67.50
2018-07-26T07:49:43.448Z,67.50
2018-07-26T07:50:43.439Z,67.50
2018-07-26T07:51:43.674Z,73.12
2018-07-26T07:52:43.600Z,73.12
2018-07-26T07:53:43.453Z,73.12
2018-07-26T07:54:43.608Z,73.12
2018-07-26T07:55:43.409Z,73.12
2018-07-26T07:56:43.495Z,73.12
2018-07-26T07:57:43.500Z,73.12
2018-07-26T07:58:43.357Z,73.12
2018-07-26T07:59:43.351Z,73.12
2018-07-26T08:00:43.339Z,73.12
2018-07-26T08:01:43.321Z,73.12
2018-07-26T08:02:43.381Z,73.12
2018-07-26T08:03:43.303Z,73.12
2018-07-26T08:04:43.337Z,73.12
2018-07-26T08:05:43.272Z,73.12
2018-07-26T08:06:43.334Z,73.12
2018-07-26T08:07:43.320Z,73.12
2018-07-26T08:08:43.252Z,73.12
2018-07-26T08:09:43.236Z,73.12
2018-07-26T08:10:43.227Z,73.12
2018-07-26T08:11:43.397Z,73.12
2018-07-26T08:12:43.730Z,73.12
2018-07-26T08:13:43.248Z,73.12
2018-07-26T08:14:43.250Z,73.12
2018-07-26T08:15:43.404Z,73.12
2018-07-26T08:16:43.162Z,73.12
2018-07-26T08:17:43.652Z,73.12
2018-07-26T08:18:43.151Z,73.12
2018-07-26T08:19:43.176Z,73.12
2018-07-26T08:20:43.128Z,73.12
2018-07-26T08:21:43.116Z,73.12
2018-07-26T08:22:43.155Z,73.12
2018-07-26T08:23:43.084Z,73.12
2018-07-26T08:24:43.075Z,78.75
2018-07-26T08:25:43.059Z,78.75
2018-07-26T08:26:43.046Z,78.75
2018-07-26T08:27:43.108Z,78.75
2018-07-26T08:28:43.034Z,78.75
2018-07-26T08:29:43.020Z,78.75
2018-07-26T08:30:43.015Z,78.75
2018-07-26T08:31:43.093Z,78.75
2018-07-26T08:32:43.072Z,78.75
2018-07-26T08:33:42.996Z,78.75
2018-07-26T08:34:42.970Z,78.75
2018-07-26T08:35:42.965Z,78.75
2018-07-26T08:36:42.951Z,78.75
2018-07-26T08:37:43.015Z,78.75
2018-07-26T08:38:42.920Z,84.38
2018-07-26T08:39:42.924Z,84.38
2018-07-26T08:40:42.908Z,84.38
2018-07-26T08:41:42.895Z,84.38
2018-07-26T08:42:42.977Z,84.38
2018-07-26T08:43:42.927Z,84.38
2018-07-26T08:44:42.864Z,84.38
2018-07-26T08:45:42.853Z,78.75
2018-07-26T08:46:42.837Z,78.75
2018-07-26T08:47:42.900Z,78.75
2018-07-26T08:48:42.816Z,78.75
2018-07-26T08:49:42.810Z,78.75
2018-07-26T08:50:42.796Z,78.75
2018-07-26T08:51:42.778Z,78.75
2018-07-26T08:52:42.890Z,78.75
2018-07-26T08:53:42.761Z,78.75
2018-07-26T08:54:42.739Z,78.75
2018-07-26T08:55:42.780Z,78.75
2018-07-26T08:56:42.738Z,78.75
2018-07-26T08:57:42.775Z,78.75
2018-07-26T08:58:42.706Z,78.75
2018-07-26T08:59:42.774Z,78.75
2018-07-26T09:00:42.673Z,78.75
2018-07-26T09:01:42.688Z,84.38
2018-07-26T09:02:42.745Z,84.38
2018-07-26T09:03:42.747Z,84.38
2018-07-26T09:04:42.650Z,84.38
2018-07-26T09:05:42.628Z,84.38
2018-07-26T09:06:42.616Z,84.38
2018-07-26T09:07:42.705Z,84.38
2018-07-26T09:08:42.592Z,84.38
2018-07-26T09:09:42.587Z,84.38
2018-07-26T09:10:42.572Z,78.75
2018-07-26T09:11:42.567Z,78.75
2018-07-26T09:12:42.631Z,84.38
2018-07-26T09:13:42.548Z,78.75
2018-07-26T09:14:42.545Z,84.38
2018-07-26T09:15:42.518Z,78.75
2018-07-26T09:16:42.506Z,84.38
2018-07-26T09:17:42.580Z,90.00
2018-07-26T09:18:42.496Z,90.00
2018-07-26T09:19:42.554Z,90.00
2018-07-26T09:20:42.469Z,90.00
2018-07-26T09:21:42.451Z,90.00
2018-07-26T09:22:42.534Z,90.00
2018-07-26T09:23:42.436Z,90.00
2018-07-26T09:24:42.427Z,95.62
2018-07-26T09:25:42.421Z,95.62
2018-07-26T09:26:42.409Z,90.00
2018-07-26T09:27:42.469Z,90.00
2018-07-26T09:28:42.399Z,95.62
2018-07-26T09:29:42.376Z,90.00
2018-07-26T09:30:42.363Z,95.62
2018-07-26T09:31:42.353Z,95.62
2018-07-26T09:32:42.406Z,95.62
2018-07-26T09:33:42.392Z,95.62
2018-07-26T09:34:42.325Z,95.62
2018-07-26T09:35:42.303Z,95.62
2018-07-26T09:36:42.303Z,95.62
2018-07-26T09:37:42.447Z,95.62
2018-07-26T09:38:42.274Z,95.62
2018-07-26T09:39:42.397Z,95.62
2018-07-26T09:40:42.281Z,95.62
2018-07-26T09:41:42.259Z,95.62
2018-07-26T09:42:42.233Z,95.62
2018-07-26T09:43:42.320Z,95.62
2018-07-26T09:44:42.357Z,95.62
2018-07-26T09:45:42.205Z,95.62
2018-07-26T09:46:42.226Z,95.62
2018-07-26T09:47:42.176Z,95.62
2018-07-26T09:48:42.952Z,95.62
2018-07-26T09:49:42.239Z,95.62
2018-07-26T09:50:42.488Z,95.62
2018-07-26T09:51:43.128Z,95.62
2018-07-26T09:52:42.134Z,95.62
2018-07-26T09:53:42.201Z,101.25
2018-07-26T09:54:42.118Z,101.25
2018-07-26T09:55:42.093Z,101.25
2018-07-26T09:56:42.082Z,95.62
2018-07-26T09:57:42.072Z,95.62
2018-07-26T09:58:42.151Z,95.62
2018-07-26T09:59:42.058Z,95.62
2018-07-26T10:00:42.044Z,95.62
2018-07-26T10:01:42.070Z,101.25
2018-07-26T10:02:42.029Z,101.25
2018-07-26T10:03:42.090Z,101.25
2018-07-26T10:04:42.209Z,101.25
2018-07-26T10:05:41.993Z,101.25
2018-07-26T10:06:41.990Z,101.25
2018-07-26T10:07:41.970Z,101.25
2018-07-26T10:08:42.452Z,101.25
2018-07-26T10:09:41.952Z,101.25
2018-07-26T10:10:42.084Z,101.25
2018-07-26T10:11:41.933Z,101.25
2018-07-26T10:12:41.922Z,101.25
2018-07-26T10:13:41.980Z,101.25
2018-07-26T10:14:41.889Z,101.25
2018-07-26T10:15:41.883Z,106.88
2018-07-26T10:16:41.862Z,101.25
2018-07-26T10:17:41.853Z,112.50
2018-07-26T10:18:42.104Z,106.88
2018-07-26T10:19:41.992Z,106.88
2018-07-26T10:20:41.873Z,112.50
2018-07-26T10:21:41.818Z,112.50
2018-07-26T10:22:41.916Z,118.12
2018-07-26T10:23:41.857Z,118.12
2018-07-26T10:24:41.793Z,118.12
2018-07-26T10:25:41.777Z,118.12
2018-07-26T10:26:41.757Z,118.12
2018-07-26T10:27:41.778Z,118.12
2018-07-26T10:28:41.807Z,123.75
2018-07-26T10:29:41.739Z,123.75
2018-07-26T10:30:41.718Z,123.75
2018-07-26T10:31:41.708Z,118.12
2018-07-26T10:32:41.697Z,118.12
2018-07-26T10:33:41.758Z,118.12
2018-07-26T10:34:41.684Z,118.12
2018-07-26T10:35:41.670Z,118.12
2018-07-26T10:36:41.659Z,129.38
2018-07-26T10:37:41.659Z,123.75
2018-07-26T10:38:41.711Z,123.75
2018-07-26T10:39:41.638Z,129.38
2018-07-26T10:40:41.850Z,129.38
2018-07-26T10:41:41.618Z,123.75
2018-07-26T10:42:41.593Z,129.38
2018-07-26T10:43:41.646Z,129.38
2018-07-26T10:44:41.572Z,129.38
2018-07-26T10:45:41.946Z,129.38
2018-07-26T10:46:41.595Z,129.38
2018-07-26T10:47:42.017Z,129.38
2018-07-26T10:48:41.637Z,129.38
2018-07-26T10:49:41.522Z,135.00
2018-07-26T10:50:41.569Z,129.38
2018-07-26T10:51:41.514Z,135.00
2018-07-26T10:52:41.563Z,135.00
2018-07-26T10:53:41.556Z,135.00
2018-07-26T10:54:41.477Z,146.25
2018-07-26T10:55:41.462Z,140.62
2018-07-26T10:56:41.617Z,140.62
2018-07-26T10:57:41.650Z,146.25
2018-07-26T10:58:41.509Z,140.62
2018-07-26T10:59:41.425Z,140.62
2018-07-26T11:00:41.406Z,146.25
2018-07-26T11:01:41.402Z,146.25
2018-07-26T11:02:41.390Z,157.50
2018-07-26T11:03:41.480Z,174.38
2018-07-26T11:04:41.376Z,399.38
2018-07-26T11:05:41.366Z,500.62
2018-07-26T11:06:41.368Z,213.75
2018-07-26T11:07:41.339Z,163.12
2018-07-26T11:08:41.389Z,163.12
2018-07-26T11:09:41.363Z,163.12
2018-07-26T11:10:41.315Z,163.12
2018-07-26T11:11:41.303Z,163.12
2018-07-26T11:12:41.420Z,163.12
2018-07-26T11:13:41.365Z,163.12
2018-07-26T11:14:41.277Z,163.12
2018-07-26T11:15:41.264Z,163.12
2018-07-26T11:16:41.448Z,163.12
2018-07-26T11:17:41.244Z,163.12
2018-07-26T11:18:41.298Z,168.75
2018-07-26T11:19:41.224Z,168.75
2018-07-26T11:20:41.199Z,168.75
2018-07-26T11:21:41.192Z,168.75
2018-07-26T11:22:41.195Z,168.75
2018-07-26T11:23:41.173Z,168.75
2018-07-26T11:24:41.216Z,168.75
2018-07-26T11:25:42.218Z,174.38
2018-07-26T11:26:41.131Z,174.38
2018-07-26T11:27:41.242Z,174.38
2018-07-26T11:28:41.185Z,185.62
2018-07-26T11:29:41.231Z,191.25
2018-07-26T11:30:41.297Z,196.88
2018-07-26T11:31:41.098Z,202.50
2018-07-26T11:32:41.083Z,196.88
2018-07-26T11:33:41.078Z,196.88
2018-07-26T11:34:41.174Z,191.25
2018-07-26T11:35:41.083Z,185.62
2018-07-26T11:36:41.062Z,185.62
2018-07-26T11:37:41.048Z,191.25
2018-07-26T11:38:42.016Z,191.25
2018-07-26T11:39:41.087Z,191.25
2018-07-26T11:40:40.988Z,191.25
2018-07-26T11:41:41.001Z,191.25
2018-07-26T11:42:40.989Z,191.25
2018-07-26T11:43:40.992Z,191.25
2018-07-26T11:44:41.053Z,191.25
2018-07-26T11:45:41.011Z,196.88
2018-07-26T11:46:40.960Z,196.88
2018-07-26T11:47:40.915Z,196.88
2018-07-26T11:48:40.929Z,196.88
2018-07-26T11:49:40.988Z,196.88
2018-07-26T11:50:40.884Z,196.88
2018-07-26T11:51:40.886Z,202.50
2018-07-26T11:52:40.917Z,202.50
2018-07-26T11:53:40.908Z,202.50
2018-07-26T11:54:40.938Z,202.50
2018-07-26T11:55:40.839Z,208.12
2018-07-26T11:56:40.832Z,208.12
2018-07-26T11:57:40.813Z,213.75
2018-07-26T11:58:40.798Z,213.75
2018-07-26T11:59:40.908Z,213.75
2018-07-26T12:00:40.789Z,213.75
2018-07-26T12:01:40.804Z,213.75
2018-07-26T12:02:40.787Z,213.75
2018-07-26T12:03:40.762Z,213.75
2018-07-26T12:04:40.831Z,219.38
2018-07-26T12:05:41.088Z,219.38
2018-07-26T12:06:40.809Z,219.38
2018-07-26T12:07:40.723Z,219.38
2018-07-26T12:08:40.708Z,225.00
2018-07-26T12:09:40.770Z,225.00
2018-07-26T12:10:40.716Z,225.00
2018-07-26T12:11:40.811Z,230.62
2018-07-26T12:12:40.677Z,230.62
2018-07-26T12:13:40.656Z,230.62
2018-07-26T12:14:40.794Z,230.62
2018-07-26T12:15:40.708Z,230.62
2018-07-26T12:16:40.625Z,236.25
2018-07-26T12:17:42.302Z,236.25
2018-07-26T12:18:40.638Z,236.25
2018-07-26T12:19:42.273Z,236.25
2018-07-26T12:20:40.590Z,236.25
2018-07-26T12:21:40.562Z,230.62
2018-07-26T12:22:41.125Z,230.62
2018-07-26T12:23:40.546Z,230.62
2018-07-26T12:24:42.329Z,230.62
2018-07-26T12:25:40.522Z,230.62
2018-07-26T12:26:40.592Z,230.62
2018-07-26T12:27:41.244Z,230.62
2018-07-26T12:28:40.527Z,236.25
2018-07-26T12:29:42.451Z,236.25
2018-07-26T12:30:40.468Z,236.25
2018-07-26T12:31:41.169Z,236.25
2018-07-26T12:32:52.427Z,241.88
2018-07-26T12:33:40.870Z,241.88
2018-07-26T12:34:41.263Z,241.88
2018-07-26T12:37:37.597Z,264.38
2018-07-26T12:38:35.695Z,264.38
2018-07-26T12:39:36.010Z,258.75
2018-07-26T12:40:35.792Z,270.00
2018-07-26T12:41:35.608Z,275.62
2018-07-26T12:42:35.787Z,281.25
2018-07-26T12:43:35.629Z,281.25
2018-07-26T12:44:35.959Z,298.12
2018-07-26T12:45:35.564Z,320.62
2018-07-26T12:46:35.562Z,337.50
2018-07-26T12:47:35.617Z,354.38
2018-07-26T12:48:35.535Z,376.88
2018-07-26T12:49:35.973Z,399.38
2018-07-26T12:50:35.566Z,450.00
2018-07-26T12:51:35.513Z,1395.00
2018-07-26T12:52:35.495Z,2497.50
2018-07-26T12:53:35.490Z,2671.88
2018-07-26T12:54:35.480Z,2756.25
2018-07-26T12:55:35.973Z,2885.62
2018-07-26T12:56:35.469Z,2913.75
2018-07-26T12:57:35.674Z,2683.12
2018-07-26T12:58:35.674Z,2677.50
2018-07-26T12:59:35.582Z,2812.50
2018-07-26T13:00:40.627Z,2891.25
2018-07-26T13:01:35.504Z,2846.25
2018-07-26T13:02:35.386Z,2835.00
2018-07-26T13:03:35.393Z,1665.00
2018-07-26T13:04:35.505Z,247.50
2018-07-26T13:05:35.604Z,241.88
2018-07-26T13:06:35.340Z,208.12